BXTK1: Spring River at Baxter Springs

                                SHEF ID:       BXTK1     SPRING R NR BAXTER SPRINGS, KS
STATION TYPE:

PRECIP STAGE RIV-FLOW BAT-LOAD
in ft cfs volt
Ccp-Rev Ccp-Rev Ccp-Rev Ccp-Rev
(America/Chicago)
02/14 00:00 0.23 2.98 301 12.31
02/14 01:00 0.00 3.01 327 12.31
02/14 02:00 0.00 3.03 344 12.29
02/14 03:00 0.00 3.05 362 12.27
02/14 04:00 0.00 3.10 408 12.24
02/14 05:00 0.06 3.18 488 12.23
02/14 06:00 0.38 3.32 645 12.20
02/14 07:00 0.03 3.44 796 12.20
02/14 08:00 0.00 3.52 905 12.19
02/14 09:00 0.02 3.58 991 12.19
02/14 10:00 0.00 3.62 1051 12.25
02/14 11:00 0.00 3.66 1112 12.21
02/14 12:00 0.00 3.69 1159 12.20
02/14 13:00 0.00 3.72 1207 12.66
02/14 14:00 0.00 3.74 1240 12.85
02/14 15:00 0.00 3.76 1273 12.80
02/14 16:00 0.00 3.76 1273 12.57
02/14 17:00 0.00 3.75 1256 12.44
02/14 18:00 0.00 3.74 1240 12.33
02/14 19:00 0.00 3.71 1191 12.25
02/14 20:00 0.00 3.70 1175 12.21
02/14 21:00 0.02 3.67 1128 12.21
02/14 22:00 0.00 3.66 1112 12.18
02/14 23:00 ---- 3.64 1081 12.21
Data processed at Sun 15Feb2026 05:42 GMT

NOTICE: If you are parsing this page

Please convert to using our Data API. Starting early 2026 we will be migrating to: https://water.usace.army.mil with modern pages rendered in JavaScript. When this migration completes you will no longer be able to scrape this page! CWMSDataAPI (CDA)

Timeseries IDs (TSIDs)

TSIDs used from left to right in the data table
BAXT.Precip-Inc.Total.1Hour.1Hour.Ccp-Rev
BAXT.Stage.Inst.1Hour.0.Ccp-Rev
BAXT.Flow.Inst.1Hour.0.Ccp-Rev
BAXT.Volt-Battery Load.Inst.1Hour.0.Ccp-Rev

                            

All information presented herein is the property of the government of the United States of America and may be revised or deleted at any time without prior notice. Dissemination of this information without the expressed written consent of the Public Affairs Office, Tulsa District U.S. Army Corps of Engineers is strictly prohibited. These data are gathered electronically and, as presented, have NOT undergone any form of quality control. These data are NOT guaranteed to be valid or correct.